NCAR-RAP Real-Time Weather Data

Output produced by METARs form (06 May 2021  15:07 UTC)
found at http://weather.rap.ucar.edu/surface/
 
KPWK 061452Z 36009KT 10SM OVC038 09/05 A3011 RMK AO2 RAB00E15 SLP200 P0000 60001 T00890050 55004
KPWK 061352Z 07004KT 10SM OVC045 09/05 A3010 RMK AO2 RAB1254E17 SLP197 P0000 T00940050
KPWK 061252Z 11005KT 10SM SCT050 BKN070 OVC080 09/05 A3011 RMK AO2 RAE30 SLP199 P0001 T00940050
KPWK 061152Z 36003KT 10SM -RA BKN050 OVC060 09/06 A3013 RMK AO2 SLP203 P0000 60000 T00940061 10100 20089 55001
KPWK 061052Z 00000KT 10SM -RA OVC055 09/04 A3011 RMK AO2 RAB03 SLP197 P0000 T00940039
KPWK 060952Z AUTO 10003KT 10SM BKN060 OVC070 10/02 A3011 RMK AO2 RAB0857E11 SLP196 P0000 T01000022
KPWK 060852Z AUTO 00000KT 10SM BKN060 OVC080 09/03 A3013 RMK AO2 RAE44 SLP204 P0000 60000 T00890033 56006
KPWK 060752Z AUTO 36004KT 10SM -RA OVC060 09/03 A3014 RMK AO2 RAB18 SLP206 P0000 T00940028
KPWK 060652Z AUTO 00000KT 10SM BKN070 OVC090 10/01 A3013 RMK AO2 SLP205 T01000006
KPWK 060552Z AUTO 15003KT 10SM BKN080 OVC100 10/00 A3014 RMK AO2 SLP208 T01000000 10106 20089 401560039 58008
KPWK 060452Z AUTO 15004KT 10SM FEW080 FEW120 09/00 A3016 RMK AO2 SLP213 T00940000
KPWK 060352Z AUTO 16006KT 10SM CLR 09/01 A3017 RMK AO2 SLP219 T00890006
KPWK 060252Z 13004KT 10SM CLR 09/00 A3017 RMK AO2 SLP218 T00940000 51004
KPWK 060152Z 13004KT 10SM CLR 09/00 A3016 RMK AO2 SLP216 T00890000
KPWK 060052Z 10005KT 10SM CLR 10/M01 A3016 RMK AO2 SLP216 T01001006